Szafir — 5BFC3 — position and weather

sailwx.info

Track history (hours):
 
Tides and Currents Weather Stations Pressure Air Temp Water Temp Dewpoint Dewpoint Depression Visibility Wind Speed Wind Dir Waves Ship Positions

Szafir

Last reported at 2015-Jan-31 12:33 UTC. Time now 2015-Jan-31 13:14 UTC.
Position N 57°44' E 010°55'.

Length 113 m; draft 7.5 m.

Type: Ship. MMSI: 209366000.

Date/timePositionNaut miles runAvg speedWind from/ knotsBaromVisibWave heightAir tempDewpointWater temp
2015-Jan-31 12:33N 57°44' E 010°55'1212.1
2015-Jan-31 11:33N 57°36' E 011°11'1212.0
2015-Jan-31 10:33N 57°27' E 011°26'1211.7
2015-Jan-31 09:33N 57°16' E 011°33'1212.2
2015-Jan-31 08:33N 57°05' E 011°41'1211.9
2015-Jan-31 07:33N 56°53' E 011°48'1111.2
2015-Jan-31 06:33N 56°42' E 011°50'12710.4
2015-Jan-30 18:19N 54°38' E 011°06'911.9
2015-Jan-30 17:33N 54°33' E 011°20'1212.1
2015-Jan-30 16:33N 54°28' E 011°39'1111.2
2015-Jan-30 15:33N 54°27' E 011°58'10 9.7
2015-Jan-30 14:33N 54°32' E 012°12'1311.4
2015-Jan-30 13:26N 54°41' E 012°27'2611.8
2015-Jan-30 11:14N 54°52' E 013°07'1311.5
2015-Jan-30 10:07N 54°57' E 013°28'611.3
2015-Jan-30 09:32N 54°59' E 013°39'2710.9
2015-Jan-30 07:04N 55°14' E 014°18'510.9
2015-Jan-30 06:34N 55°19' E 014°24'1111.2
2015-Jan-30 05:32N 55°27' E 014°38'1110.9
2015-Jan-30 04:30N 55°33' E 014°55'195 6.7
2015-Jan-28 23:30N 58°36' E 016°53'1010.6
2015-Jan-28 22:33N 58°38' E 016°34'10 9.6
2015-Jan-28 21:31N 58°37' E 016°15'0 0.2
2015-Jan-28 20:31N 58°37' E 016°15'0 0.0
2015-Jan-28 19:28N 58°37' E 016°15'0 0.0
2015-Jan-28 18:31N 58°37' E 016°15'0 0.0
2015-Jan-28 17:28N 58°37' E 016°15'0 0.0
2015-Jan-28 16:31N 58°37' E 016°15'0 0.0
2015-Jan-28 15:31N 58°37' E 016°15'0 0.0
2015-Jan-28 14:31N 58°37' E 016°15'0 0.0
2015-Jan-28 13:31N 58°37' E 016°15'0 0.0
2015-Jan-28 12:31N 58°37' E 016°15'0 0.0
2015-Jan-28 11:31N 58°37' E 016°15'0 0.0
2015-Jan-28 10:28N 58°37' E 016°15'0 0.0
2015-Jan-28 09:28N 58°37' E 016°15'0 0.0
2015-Jan-28 08:31N 58°37' E 016°15'0 0.0
2015-Jan-28 07:31N 58°37' E 016°15'0 0.0
2015-Jan-28 06:31N 58°37' E 016°15'0 0.0
2015-Jan-28 05:31N 58°37' E 016°15'0 0.0
2015-Jan-28 04:31N 58°37' E 016°15'0 0.0
2015-Jan-28 03:31N 58°37' E 016°15'0 0.0
2015-Jan-28 02:25N 58°37' E 016°15'0 0.0
2015-Jan-28 01:31N 58°37' E 016°15'0 0.0
2015-Jan-28 00:28N 58°37' E 016°15'0 0.0
2015-Jan-27 23:31N 58°37' E 016°15'0 0.0
2015-Jan-27 22:31N 58°37' E 016°15'0 0.0
2015-Jan-27 21:31N 58°37' E 016°15'0 0.0
2015-Jan-27 20:31N 58°37' E 016°15'0 0.0
2015-Jan-27 19:31N 58°37' E 016°15'0 0.0
2015-Jan-27 18:22N 58°37' E 016°15'0 0.0
2015-Jan-27 15:16N 58°37' E 016°15'0 0.0
2015-Jan-27 14:28N 58°37' E 016°15'0 0.0
2015-Jan-27 13:33N 58°37' E 016°15'5 5.1
2015-Jan-27 12:33N 58°39' E 016°24'1111.0
2015-Jan-27 11:34N 58°37' E 016°45'21510.7
2015-Jan-26 15:33N 59°39' E 023°26'1411.7
2015-Jan-26 14:21N 59°43' E 023°54'8111.9
2015-Jan-26 07:34N 60°01' E 026°30'11110.8
2015-Jan-25 21:17N 59°53' E 030°11'1 0.0
2015-Jan-24 04:29N 59°54' E 030°09'9712.1
2015-Jan-23 20:25N 59°59' E 026°54'1414.3
2015-Jan-23 19:28N 59°57' E 026°27'  
Track history (hours):
 
Tides and Currents Weather Stations Pressure Air Temp Water Temp Dewpoint Dewpoint Depression Visibility Wind Speed Wind Dir Waves Ship Positions

Szafir

Last reported at 2015-Jan-31 12:33 UTC. Time now 2015-Jan-31 13:14 UTC.
Position N 57°44' E 010°55'.

Length 113 m; draft 7.5 m.

Type: Ship. MMSI: 209366000.

Date/timePositionNaut miles runAvg speedWind from/ knotsBaromVisibWave heightAir tempDewpointWater temp
2015-Jan-31 12:33N 57°44' E 010°55'1212.1
2015-Jan-31 11:33N 57°36' E 011°11'1212.0
2015-Jan-31 10:33N 57°27' E 011°26'1211.7
2015-Jan-31 09:33N 57°16' E 011°33'1212.2
2015-Jan-31 08:33N 57°05' E 011°41'1211.9
2015-Jan-31 07:33N 56°53' E 011°48'1111.2
2015-Jan-31 06:33N 56°42' E 011°50'12710.4
2015-Jan-30 18:19N 54°38' E 011°06'911.9
2015-Jan-30 17:33N 54°33' E 011°20'1212.1
2015-Jan-30 16:33N 54°28' E 011°39'1111.2
2015-Jan-30 15:33N 54°27' E 011°58'10 9.7
2015-Jan-30 14:33N 54°32' E 012°12'1311.4
2015-Jan-30 13:26N 54°41' E 012°27'2611.8
2015-Jan-30 11:14N 54°52' E 013°07'1311.5
2015-Jan-30 10:07N 54°57' E 013°28'611.3
2015-Jan-30 09:32N 54°59' E 013°39'2710.9
2015-Jan-30 07:04N 55°14' E 014°18'510.9
2015-Jan-30 06:34N 55°19' E 014°24'1111.2
2015-Jan-30 05:32N 55°27' E 014°38'1110.9
2015-Jan-30 04:30N 55°33' E 014°55'195 6.7
2015-Jan-28 23:30N 58°36' E 016°53'1010.6
2015-Jan-28 22:33N 58°38' E 016°34'10 9.6
2015-Jan-28 21:31N 58°37' E 016°15'0 0.2
2015-Jan-28 20:31N 58°37' E 016°15'0 0.0
2015-Jan-28 19:28N 58°37' E 016°15'0 0.0
2015-Jan-28 18:31N 58°37' E 016°15'0 0.0
2015-Jan-28 17:28N 58°37' E 016°15'0 0.0
2015-Jan-28 16:31N 58°37' E 016°15'0 0.0
2015-Jan-28 15:31N 58°37' E 016°15'0 0.0
2015-Jan-28 14:31N 58°37' E 016°15'0 0.0
2015-Jan-28 13:31N 58°37' E 016°15'0 0.0
2015-Jan-28 12:31N 58°37' E 016°15'0 0.0
2015-Jan-28 11:31N 58°37' E 016°15'0 0.0
2015-Jan-28 10:28N 58°37' E 016°15'0 0.0
2015-Jan-28 09:28N 58°37' E 016°15'0 0.0
2015-Jan-28 08:31N 58°37' E 016°15'0 0.0
2015-Jan-28 07:31N 58°37' E 016°15'0 0.0
2015-Jan-28 06:31N 58°37' E 016°15'0 0.0
2015-Jan-28 05:31N 58°37' E 016°15'0 0.0
2015-Jan-28 04:31N 58°37' E 016°15'0 0.0
2015-Jan-28 03:31N 58°37' E 016°15'0 0.0
2015-Jan-28 02:25N 58°37' E 016°15'0 0.0
2015-Jan-28 01:31N 58°37' E 016°15'0 0.0
2015-Jan-28 00:28N 58°37' E 016°15'0 0.0
2015-Jan-27 23:31N 58°37' E 016°15'0 0.0
2015-Jan-27 22:31N 58°37' E 016°15'0 0.0
2015-Jan-27 21:31N 58°37' E 016°15'0 0.0
2015-Jan-27 20:31N 58°37' E 016°15'0 0.0
2015-Jan-27 19:31N 58°37' E 016°15'0 0.0
2015-Jan-27 18:22N 58°37' E 016°15'0 0.0
2015-Jan-27 15:16N 58°37' E 016°15'0 0.0
2015-Jan-27 14:28N 58°37' E 016°15'0 0.0
2015-Jan-27 13:33N 58°37' E 016°15'5 5.1
2015-Jan-27 12:33N 58°39' E 016°24'1111.0
2015-Jan-27 11:34N 58°37' E 016°45'21510.7
2015-Jan-26 15:33N 59°39' E 023°26'1411.7
2015-Jan-26 14:21N 59°43' E 023°54'8111.9
2015-Jan-26 07:34N 60°01' E 026°30'11110.8
2015-Jan-25 21:17N 59°53' E 030°11'1 0.0
2015-Jan-24 04:29N 59°54' E 030°09'9712.1
2015-Jan-23 20:25N 59°59' E 026°54'1414.3
2015-Jan-23 19:28N 59°57' E 026°27'  

Dump ship's entire track history